OMAA/AUH METAR and TAF weather

Enter ICAO airport designator
Station Type Date Time Source
OMAA METAR 2021/07/26 12:00 UTC NOAA

OMAA 261200Z 34013KT 8000 NSC 40/25 Q0996 NOSIG


Station Type Date Time Source
OMAA Decoded METAR 2021/07/26 12:00 UTC NOAA

Abu Dhabi International Airport, United Arab Emirates (OMAA) 24-26N 054-39E 27M
Jul 26, 2021 - 08:00 AM EDT / 2021.07.26 1200 UTC
Wind: from the NNW (340 degrees) at 15 MPH (13 KT):0
Visibility: 4 mile(s):0
Temperature: 104 F (40 C)
Heat index: 121.1 F (49.5 C):1
Dew Point: 77 F (25 C)
Relative Humidity: 42%
Pressure (altimeter): 29.41 in. Hg (0996 hPa)
ob: OMAA 261200Z 34013KT 8000 NSC 40/25 Q0996 NOSIG
cycle: 12

Station Type Date Time Source
OMAA TAF 2021/07/26 12:04 UTC NOAA

TAF OMAA 261100Z 2612/2718 32013KT 8000 NSC
BECMG 2616/2618 05005KT
BECMG 2701/2703 16005KT
BECMG 2707/2709 32012KT
BECMG 2716/2718 VRB02KT

Example: see airport list